GVSV

São Pedro Airport

São Pedro, Cape Verde
METAR GVSV 201500Z 06014KT 9999 -RA SCT016 BKN090 20/17 Q1014 NOSIG
Observed Flight Rules
Feb-20 @ 15:00 UTC (2 hours ago) Visual Flight Rules
Wind Visibility Clouds Conditions
60° at 14 knots 10,000+ meters
  • Scattered at 1,600' AGL
  • Broken at 9,000' AGL
  • Light Rain
Temperatures Readings
Current 20°C / 68°F
Dewpoint 17°C / 63°F
Humidity 83%
Altimeter 29.94" Hg
Pressure 1014 hPa
Elevation 20
METAR GVSV 201500Z 06014KT 9999 -RA SCT016 BKN090 20/17 Q1014 NOSIG
Observed Flight Rules
Feb-20 @ 15:00 UTC
(2 hours ago)
VFR
Wind Visibility
60° at 14 knots 10,000+ meters
Clouds
  • Scattered at 1,600' AGL
  • Broken at 9,000' AGL
Conditions
  • Light Rain
Temperature Dewpoint
20°C / 68°F 17°C / 63°F
Humidity Altimeter Pressure
83% 29.94" Hg 1014 hPa